sensor_id;sensor_type;location;lat;lon;timestamp;temperature;humidity
48328;DHT22;34136;51.022;7.082;2023-07-31T04:35:59;18.00;1.00
48328;DHT22;34136;51.022;7.082;2023-07-31T04:38:45;18.00;1.00
48328;DHT22;34136;51.022;7.082;2023-07-31T04:41:31;18.00;1.00
48328;DHT22;34136;51.022;7.082;2023-07-31T04:44:17;18.10;1.00
48328;DHT22;34136;51.022;7.082;2023-07-31T04:47:04;18.10;1.00
48328;DHT22;34136;51.022;7.082;2023-07-31T04:49:50;18.10;1.00
48328;DHT22;34136;51.022;7.082;2023-07-31T04:52:36;18.20;1.00
48328;DHT22;34136;51.022;7.082;2023-07-31T04:55:22;18.20;1.00
48328;DHT22;34136;51.022;7.082;2023-07-31T04:58:09;18.30;1.00
48328;DHT22;34136;51.022;7.082;2023-07-31T05:00:55;18.30;1.00
48328;DHT22;34136;51.022;7.082;2023-07-31T05:03:41;18.30;1.00
48328;DHT22;34136;51.022;7.082;2023-07-31T05:06:28;18.30;1.00
48328;DHT22;34136;51.022;7.082;2023-07-31T05:09:14;18.30;1.00
48328;DHT22;34136;51.022;7.082;2023-07-31T05:12:00;18.40;1.00
48328;DHT22;34136;51.022;7.082;2023-07-31T05:14:47;18.40;1.00
48328;DHT22;34136;51.022;7.082;2023-07-31T05:17:33;18.40;1.00
48328;DHT22;34136;51.022;7.082;2023-07-31T05:24:17;18.40;1.00
48328;DHT22;34136;51.022;7.082;2023-07-31T06:21:23;18.70;1.00
48328;DHT22;34136;51.022;7.082;2023-07-31T06:53:11;18.60;1.00
48328;DHT22;34136;51.022;7.082;2023-07-31T06:55:57;18.60;1.00
48328;DHT22;34136;51.022;7.082;2023-07-31T06:58:43;18.70;1.00
48328;DHT22;34136;51.022;7.082;2023-07-31T07:01:30;18.80;1.00
48328;DHT22;34136;51.022;7.082;2023-07-31T07:04:16;18.70;1.00
48328;DHT22;34136;51.022;7.082;2023-07-31T07:07:03;18.70;1.00
48328;DHT22;34136;51.022;7.082;2023-07-31T07:09:49;18.70;1.00
48328;DHT22;34136;51.022;7.082;2023-07-31T07:12:35;18.90;1.00
48328;DHT22;34136;51.022;7.082;2023-07-31T07:15:22;18.90;1.00
48328;DHT22;34136;51.022;7.082;2023-07-31T07:18:08;18.90;1.00
48328;DHT22;34136;51.022;7.082;2023-07-31T07:20:54;18.90;1.00
48328;DHT22;34136;51.022;7.082;2023-07-31T07:23:41;18.90;1.00
48328;DHT22;34136;51.022;7.082;2023-07-31T07:26:27;18.80;1.00
48328;DHT22;34136;51.022;7.082;2023-07-31T07:29:14;18.90;1.00
48328;DHT22;34136;51.022;7.082;2023-07-31T07:32:00;18.80;1.00
48328;DHT22;34136;51.022;7.082;2023-07-31T07:34:48;18.90;1.00
48328;DHT22;34136;51.022;7.082;2023-07-31T07:37:34;18.90;1.00
48328;DHT22;34136;51.022;7.082;2023-07-31T07:40:21;18.80;1.00
48328;DHT22;34136;51.022;7.082;2023-07-31T07:43:08;18.80;1.00
48328;DHT22;34136;51.022;7.082;2023-07-31T07:45:54;18.80;1.00
48328;DHT22;34136;51.022;7.082;2023-07-31T07:48:40;18.80;1.00
48328;DHT22;34136;51.022;7.082;2023-07-31T07:51:26;18.80;1.00
48328;DHT22;34136;51.022;7.082;2023-07-31T07:54:12;18.90;1.00
48328;DHT22;34136;51.022;7.082;2023-07-31T07:56:59;18.90;1.00
48328;DHT22;34136;51.022;7.082;2023-07-31T07:59:45;18.80;1.00
48328;DHT22;34136;51.022;7.082;2023-07-31T08:02:31;18.80;1.00
48328;DHT22;34136;51.022;7.082;2023-07-31T08:09:00;18.60;1.00
48328;DHT22;34136;51.022;7.082;2023-07-31T08:11:46;18.40;1.00
48328;DHT22;34136;51.022;7.082;2023-07-31T08:18:14;18.50;1.00
48328;DHT22;34136;51.022;7.082;2023-07-31T08:21:03;18.40;1.00
48328;DHT22;34136;51.022;7.082;2023-07-31T08:23:50;18.40;1.00
48328;DHT22;34136;51.022;7.082;2023-07-31T08:59:01;18.40;1.00
48328;DHT22;34136;51.022;7.082;2023-07-31T09:01:50;18.40;1.00
48328;DHT22;34136;51.022;7.082;2023-07-31T09:04:38;18.40;1.00
48328;DHT22;34136;51.022;7.082;2023-07-31T09:07:25;18.50;1.00
48328;DHT22;34136;51.022;7.082;2023-07-31T09:10:11;18.60;1.00
48328;DHT22;34136;51.022;7.082;2023-07-31T09:12:57;18.70;1.00
48328;DHT22;34136;51.022;7.082;2023-07-31T09:15:45;18.70;1.00
48328;DHT22;34136;51.022;7.082;2023-07-31T09:18:32;18.80;1.00
48328;DHT22;34136;51.022;7.082;2023-07-31T09:21:18;18.80;1.00
48328;DHT22;34136;51.022;7.082;2023-07-31T09:24:04;18.80;1.00
48328;DHT22;34136;51.022;7.082;2023-07-31T09:26:53;18.80;1.00
48328;DHT22;34136;51.022;7.082;2023-07-31T09:29:40;18.90;1.00
48328;DHT22;34136;51.022;7.082;2023-07-31T09:32:26;18.90;1.00
48328;DHT22;34136;51.022;7.082;2023-07-31T09:35:19;18.90;1.00
48328;DHT22;34136;51.022;7.082;2023-07-31T09:38:10;18.70;1.00
48328;DHT22;34136;51.022;7.082;2023-07-31T09:40:58;18.80;1.00
48328;DHT22;34136;51.022;7.082;2023-07-31T09:43:53;18.70;1.00
48328;DHT22;34136;51.022;7.082;2023-07-31T09:46:40;18.70;1.00
48328;DHT22;34136;51.022;7.082;2023-07-31T09:49:26;18.70;1.00
48328;DHT22;34136;51.022;7.082;2023-07-31T09:52:13;18.60;1.00
48328;DHT22;34136;51.022;7.082;2023-07-31T09:55:00;18.60;1.00
48328;DHT22;34136;51.022;7.082;2023-07-31T09:57:47;18.60;1.00
48328;DHT22;34136;51.022;7.082;2023-07-31T10:00:34;18.50;1.00
48328;DHT22;34136;51.022;7.082;2023-07-31T10:03:20;18.60;1.00
48328;DHT22;34136;51.022;7.082;2023-07-31T10:06:09;18.60;1.00
48328;DHT22;34136;51.022;7.082;2023-07-31T10:08:56;18.80;1.00
48328;DHT22;34136;51.022;7.082;2023-07-31T10:11:47;18.90;1.00
48328;DHT22;34136;51.022;7.082;2023-07-31T10:14:33;19.10;1.00
48328;DHT22;34136;51.022;7.082;2023-07-31T10:17:22;19.10;1.00
48328;DHT22;34136;51.022;7.082;2023-07-31T10:20:09;19.20;1.00
48328;DHT22;34136;51.022;7.082;2023-07-31T10:22:56;19.20;1.00
48328;DHT22;34136;51.022;7.082;2023-07-31T10:25:43;19.20;1.00
48328;DHT22;34136;51.022;7.082;2023-07-31T10:28:30;19.30;1.00
48328;DHT22;34136;51.022;7.082;2023-07-31T10:31:18;19.40;1.00
48328;DHT22;34136;51.022;7.082;2023-07-31T10:34:05;19.50;1.00
48328;DHT22;34136;51.022;7.082;2023-07-31T10:40:11;19.30;1.00
48328;DHT22;34136;51.022;7.082;2023-07-31T10:42:58;19.40;1.00
48328;DHT22;34136;51.022;7.082;2023-07-31T10:45:44;19.50;1.00
48328;DHT22;34136;51.022;7.082;2023-07-31T10:48:33;19.50;1.00
48328;DHT22;34136;51.022;7.082;2023-07-31T10:51:21;19.70;1.00
48328;DHT22;34136;51.022;7.082;2023-07-31T10:54:12;19.70;1.00
48328;DHT22;34136;51.022;7.082;2023-07-31T10:56:58;19.80;1.00
48328;DHT22;34136;51.022;7.082;2023-07-31T10:59:45;19.80;1.00
48328;DHT22;34136;51.022;7.082;2023-07-31T11:02:33;19.70;1.00
48328;DHT22;34136;51.022;7.082;2023-07-31T11:05:19;19.60;1.00
48328;DHT22;34136;51.022;7.082;2023-07-31T11:08:14;19.70;1.00
48328;DHT22;34136;51.022;7.082;2023-07-31T11:11:04;19.70;1.00
48328;DHT22;34136;51.022;7.082;2023-07-31T11:13:52;19.70;1.00
48328;DHT22;34136;51.022;7.082;2023-07-31T11:16:41;19.70;1.00
48328;DHT22;34136;51.022;7.082;2023-07-31T11:19:27;19.70;1.00
48328;DHT22;34136;51.022;7.082;2023-07-31T11:22:14;19.60;1.00
48328;DHT22;34136;51.022;7.082;2023-07-31T11:25:02;19.50;1.00
48328;DHT22;34136;51.022;7.082;2023-07-31T11:27:48;19.40;1.00
48328;DHT22;34136;51.022;7.082;2023-07-31T11:30:35;19.20;1.00
48328;DHT22;34136;51.022;7.082;2023-07-31T11:33:21;19.40;1.00
48328;DHT22;34136;51.022;7.082;2023-07-31T11:47:33;20.00;1.00
48328;DHT22;34136;51.022;7.082;2023-07-31T11:54:33;20.00;1.00
48328;DHT22;34136;51.022;7.082;2023-07-31T11:57:20;20.00;1.00
48328;DHT22;34136;51.022;7.082;2023-07-31T12:00:08;20.00;1.00
48328;DHT22;34136;51.022;7.082;2023-07-31T12:02:54;20.00;1.00
48328;DHT22;34136;51.022;7.082;2023-07-31T12:05:41;20.00;1.00
48328;DHT22;34136;51.022;7.082;2023-07-31T12:08:27;20.10;1.00
48328;DHT22;34136;51.022;7.082;2023-07-31T12:11:14;20.10;1.00
48328;DHT22;34136;51.022;7.082;2023-07-31T12:14:00;20.20;1.00
48328;DHT22;34136;51.022;7.082;2023-07-31T12:16:46;20.20;1.00
48328;DHT22;34136;51.022;7.082;2023-07-31T12:19:33;20.10;1.00
48328;DHT22;34136;51.022;7.082;2023-07-31T12:22:20;20.10;1.00
48328;DHT22;34136;51.022;7.082;2023-07-31T12:25:06;20.10;1.00
48328;DHT22;34136;51.022;7.082;2023-07-31T12:39:00;20.10;1.00
48328;DHT22;34136;51.022;7.082;2023-07-31T12:41:46;20.10;1.40
48328;DHT22;34136;51.022;7.082;2023-07-31T12:44:32;20.00;1.00
48328;DHT22;34136;51.022;7.082;2023-07-31T12:47:19;19.90;1.00
48328;DHT22;34136;51.022;7.082;2023-07-31T12:50:06;19.80;1.00
48328;DHT22;34136;51.022;7.082;2023-07-31T12:52:56;20.00;1.00
48328;DHT22;34136;51.022;7.082;2023-07-31T12:55:43;20.00;1.00
48328;DHT22;34136;51.022;7.082;2023-07-31T12:58:29;20.10;1.00
48328;DHT22;34136;51.022;7.082;2023-07-31T13:01:16;20.10;99.90
48328;DHT22;34136;51.022;7.082;2023-07-31T13:04:02;20.20;99.90
48328;DHT22;34136;51.022;7.082;2023-07-31T13:06:48;20.30;1.40
48328;DHT22;34136;51.022;7.082;2023-07-31T13:09:35;20.30;99.90
48328;DHT22;34136;51.022;7.082;2023-07-31T13:12:21;20.40;99.90
48328;DHT22;34136;51.022;7.082;2023-07-31T13:15:07;20.50;99.90
48328;DHT22;34136;51.022;7.082;2023-07-31T13:17:53;20.50;99.90
48328;DHT22;34136;51.022;7.082;2023-07-31T13:20:40;20.60;99.90
48328;DHT22;34136;51.022;7.082;2023-07-31T13:23:26;20.70;99.90
48328;DHT22;34136;51.022;7.082;2023-07-31T13:26:12;20.80;99.90
48328;DHT22;34136;51.022;7.082;2023-07-31T13:28:59;20.80;99.90
48328;DHT22;34136;51.022;7.082;2023-07-31T13:31:45;20.80;99.90
48328;DHT22;34136;51.022;7.082;2023-07-31T13:34:31;20.90;99.90
48328;DHT22;34136;51.022;7.082;2023-07-31T13:37:17;20.90;99.90
48328;DHT22;34136;51.022;7.082;2023-07-31T13:40:04;21.00;99.90
48328;DHT22;34136;51.022;7.082;2023-07-31T13:42:50;21.00;99.90
48328;DHT22;34136;51.022;7.082;2023-07-31T13:45:37;21.20;99.90
48328;DHT22;34136;51.022;7.082;2023-07-31T13:48:23;21.20;99.90
48328;DHT22;34136;51.022;7.082;2023-07-31T13:51:09;21.30;99.90
48328;DHT22;34136;51.022;7.082;2023-07-31T13:53:56;21.20;99.90
48328;DHT22;34136;51.022;7.082;2023-07-31T13:56:43;21.30;99.90
48328;DHT22;34136;51.022;7.082;2023-07-31T13:59:29;21.50;99.90
48328;DHT22;34136;51.022;7.082;2023-07-31T14:02:16;21.50;99.90
48328;DHT22;34136;51.022;7.082;2023-07-31T14:05:02;21.60;99.90
48328;DHT22;34136;51.022;7.082;2023-07-31T14:07:48;21.60;99.90
48328;DHT22;34136;51.022;7.082;2023-07-31T14:10:35;21.80;99.90
48328;DHT22;34136;51.022;7.082;2023-07-31T14:13:21;22.10;99.90
48328;DHT22;34136;51.022;7.082;2023-07-31T14:16:08;22.10;99.90
48328;DHT22;34136;51.022;7.082;2023-07-31T14:18:54;22.20;99.90
48328;DHT22;34136;51.022;7.082;2023-07-31T14:21:40;22.20;99.90
48328;DHT22;34136;51.022;7.082;2023-07-31T14:24:27;21.90;99.90
48328;DHT22;34136;51.022;7.082;2023-07-31T14:27:13;21.90;99.90
48328;DHT22;34136;51.022;7.082;2023-07-31T14:29:59;21.80;99.90
48328;DHT22;34136;51.022;7.082;2023-07-31T14:32:46;21.80;99.90
48328;DHT22;34136;51.022;7.082;2023-07-31T14:35:32;21.90;99.90
48328;DHT22;34136;51.022;7.082;2023-07-31T14:38:18;21.60;99.90
48328;DHT22;34136;51.022;7.082;2023-07-31T14:41:05;21.40;99.90
48328;DHT22;34136;51.022;7.082;2023-07-31T14:43:51;21.20;99.90
48328;DHT22;34136;51.022;7.082;2023-07-31T14:46:37;21.10;99.90
48328;DHT22;34136;51.022;7.082;2023-07-31T14:49:24;21.10;99.90
48328;DHT22;34136;51.022;7.082;2023-07-31T14:52:10;21.10;99.90
48328;DHT22;34136;51.022;7.082;2023-07-31T14:54:57;21.10;99.90
48328;DHT22;34136;51.022;7.082;2023-07-31T14:57:43;21.10;99.90
48328;DHT22;34136;51.022;7.082;2023-07-31T15:00:29;21.00;99.90
48328;DHT22;34136;51.022;7.082;2023-07-31T15:03:15;21.00;99.90
48328;DHT22;34136;51.022;7.082;2023-07-31T15:06:02;21.10;99.90
48328;DHT22;34136;51.022;7.082;2023-07-31T15:08:48;21.20;99.90
48328;DHT22;34136;51.022;7.082;2023-07-31T15:11:35;21.20;99.90
48328;DHT22;34136;51.022;7.082;2023-07-31T15:14:21;21.20;99.90
48328;DHT22;34136;51.022;7.082;2023-07-31T15:17:07;21.20;99.90
48328;DHT22;34136;51.022;7.082;2023-07-31T15:19:54;21.30;99.90
48328;DHT22;34136;51.022;7.082;2023-07-31T15:22:40;21.20;99.90
48328;DHT22;34136;51.022;7.082;2023-07-31T15:25:26;21.20;99.90
48328;DHT22;34136;51.022;7.082;2023-07-31T15:28:13;21.20;99.90
48328;DHT22;34136;51.022;7.082;2023-07-31T15:30:58;21.10;99.90
48328;DHT22;34136;51.022;7.082;2023-07-31T15:33:45;21.10;99.90
48328;DHT22;34136;51.022;7.082;2023-07-31T15:36:32;21.10;99.90
48328;DHT22;34136;51.022;7.082;2023-07-31T15:39:18;21.10;99.90
48328;DHT22;34136;51.022;7.082;2023-07-31T15:42:05;21.10;99.90
48328;DHT22;34136;51.022;7.082;2023-07-31T15:44:51;21.20;99.90
48328;DHT22;34136;51.022;7.082;2023-07-31T15:47:37;21.10;99.90
48328;DHT22;34136;51.022;7.082;2023-07-31T15:50:24;21.00;99.90
48328;DHT22;34136;51.022;7.082;2023-07-31T15:53:10;21.10;99.90
48328;DHT22;34136;51.022;7.082;2023-07-31T15:55:57;21.10;99.90
48328;DHT22;34136;51.022;7.082;2023-07-31T15:58:43;21.10;99.90
48328;DHT22;34136;51.022;7.082;2023-07-31T16:01:29;21.10;99.90
48328;DHT22;34136;51.022;7.082;2023-07-31T16:04:15;21.10;99.90
48328;DHT22;34136;51.022;7.082;2023-07-31T16:07:01;21.00;99.90
48328;DHT22;34136;51.022;7.082;2023-07-31T16:09:48;21.00;99.90
48328;DHT22;34136;51.022;7.082;2023-07-31T16:12:34;20.90;99.90
48328;DHT22;34136;51.022;7.082;2023-07-31T16:15:20;20.60;99.90
48328;DHT22;34136;51.022;7.082;2023-07-31T16:18:13;20.60;99.90
48328;DHT22;34136;51.022;7.082;2023-07-31T16:21:01;20.50;99.90
48328;DHT22;34136;51.022;7.082;2023-07-31T16:23:48;20.60;99.90
48328;DHT22;34136;51.022;7.082;2023-07-31T16:26:34;20.50;99.90
48328;DHT22;34136;51.022;7.082;2023-07-31T16:29:21;20.60;99.90
48328;DHT22;34136;51.022;7.082;2023-07-31T16:32:07;20.50;99.90
48328;DHT22;34136;51.022;7.082;2023-07-31T16:34:54;20.50;99.90
48328;DHT22;34136;51.022;7.082;2023-07-31T16:37:40;20.40;99.90
48328;DHT22;34136;51.022;7.082;2023-07-31T16:40:26;20.40;99.90
48328;DHT22;34136;51.022;7.082;2023-07-31T16:43:13;20.30;99.90
48328;DHT22;34136;51.022;7.082;2023-07-31T16:45:59;20.20;99.90
48328;DHT22;34136;51.022;7.082;2023-07-31T16:48:45;20.00;99.90
48328;DHT22;34136;51.022;7.082;2023-07-31T16:51:32;19.90;1.40
48328;DHT22;34136;51.022;7.082;2023-07-31T16:54:18;19.80;99.90
48328;DHT22;34136;51.022;7.082;2023-07-31T16:57:04;19.60;1.00
48328;DHT22;34136;51.022;7.082;2023-07-31T16:59:51;19.50;1.00
48328;DHT22;34136;51.022;7.082;2023-07-31T17:02:44;19.30;1.00
48328;DHT22;34136;51.022;7.082;2023-07-31T17:05:31;19.10;1.00
48328;DHT22;34136;51.022;7.082;2023-07-31T17:08:17;18.90;1.00
48328;DHT22;34136;51.022;7.082;2023-07-31T17:11:05;18.90;1.00
48328;DHT22;34136;51.022;7.082;2023-07-31T17:13:52;18.90;1.00
48328;DHT22;34136;51.022;7.082;2023-07-31T17:16:38;18.90;1.00
48328;DHT22;34136;51.022;7.082;2023-07-31T17:19:25;18.90;1.00
48328;DHT22;34136;51.022;7.082;2023-07-31T17:22:11;19.00;1.00
48328;DHT22;34136;51.022;7.082;2023-07-31T17:24:58;19.00;1.00
48328;DHT22;34136;51.022;7.082;2023-07-31T17:27:45;19.10;1.00
48328;DHT22;34136;51.022;7.082;2023-07-31T17:30:33;19.10;1.00
48328;DHT22;34136;51.022;7.082;2023-07-31T17:33:21;19.20;1.00
48328;DHT22;34136;51.022;7.082;2023-07-31T17:36:07;19.20;1.00
48328;DHT22;34136;51.022;7.082;2023-07-31T17:38:54;19.10;1.00
48328;DHT22;34136;51.022;7.082;2023-07-31T17:41:40;19.10;1.00
48328;DHT22;34136;51.022;7.082;2023-07-31T17:44:26;19.10;1.00
48328;DHT22;34136;51.022;7.082;2023-07-31T17:47:12;18.90;1.00
48328;DHT22;34136;51.022;7.082;2023-07-31T17:49:58;18.90;1.00
48328;DHT22;34136;51.022;7.082;2023-07-31T17:52:45;18.80;1.00
48328;DHT22;34136;51.022;7.082;2023-07-31T17:55:31;18.70;1.00
48328;DHT22;34136;51.022;7.082;2023-07-31T17:58:17;18.70;1.00
48328;DHT22;34136;51.022;7.082;2023-07-31T18:01:03;18.70;1.00
48328;DHT22;34136;51.022;7.082;2023-07-31T18:03:49;18.60;1.00
48328;DHT22;34136;51.022;7.082;2023-07-31T18:06:36;18.70;1.00
48328;DHT22;34136;51.022;7.082;2023-07-31T18:09:22;18.70;1.00
48328;DHT22;34136;51.022;7.082;2023-07-31T18:12:08;18.70;1.00
48328;DHT22;34136;51.022;7.082;2023-07-31T18:14:54;18.70;1.00
48328;DHT22;34136;51.022;7.082;2023-07-31T18:17:41;18.70;1.00
48328;DHT22;34136;51.022;7.082;2023-07-31T18:20:27;18.70;1.00
48328;DHT22;34136;51.022;7.082;2023-07-31T18:23:13;18.70;1.00
48328;DHT22;34136;51.022;7.082;2023-07-31T18:25:59;18.50;1.00
48328;DHT22;34136;51.022;7.082;2023-07-31T18:28:45;18.50;1.00
48328;DHT22;34136;51.022;7.082;2023-07-31T18:31:32;18.50;1.00
48328;DHT22;34136;51.022;7.082;2023-07-31T18:34:18;18.60;1.00
48328;DHT22;34136;51.022;7.082;2023-07-31T18:37:04;18.50;1.00
48328;DHT22;34136;51.022;7.082;2023-07-31T18:39:51;18.60;1.00
48328;DHT22;34136;51.022;7.082;2023-07-31T18:42:37;18.50;1.00
48328;DHT22;34136;51.022;7.082;2023-07-31T18:45:24;18.60;1.00
48328;DHT22;34136;51.022;7.082;2023-07-31T18:48:11;18.50;1.00
48328;DHT22;34136;51.022;7.082;2023-07-31T18:50:58;18.40;1.00
48328;DHT22;34136;51.022;7.082;2023-07-31T18:53:44;18.50;1.00
48328;DHT22;34136;51.022;7.082;2023-07-31T18:56:31;18.50;1.00
48328;DHT22;34136;51.022;7.082;2023-07-31T18:59:17;18.40;1.00
48328;DHT22;34136;51.022;7.082;2023-07-31T19:02:04;18.40;1.00
48328;DHT22;34136;51.022;7.082;2023-07-31T19:04:50;18.30;1.00
48328;DHT22;34136;51.022;7.082;2023-07-31T19:07:37;18.20;1.00
48328;DHT22;34136;51.022;7.082;2023-07-31T19:10:24;18.20;1.00
48328;DHT22;34136;51.022;7.082;2023-07-31T19:13:10;18.20;1.00
48328;DHT22;34136;51.022;7.082;2023-07-31T19:15:57;18.20;1.00
48328;DHT22;34136;51.022;7.082;2023-07-31T19:18:43;18.20;1.00
48328;DHT22;34136;51.022;7.082;2023-07-31T19:21:30;18.20;1.00
48328;DHT22;34136;51.022;7.082;2023-07-31T19:24:17;18.20;1.00
48328;DHT22;34136;51.022;7.082;2023-07-31T19:27:05;18.20;1.00
48328;DHT22;34136;51.022;7.082;2023-07-31T19:29:51;18.20;1.00
48328;DHT22;34136;51.022;7.082;2023-07-31T19:32:38;18.10;1.00
48328;DHT22;34136;51.022;7.082;2023-07-31T19:35:24;18.20;1.00
48328;DHT22;34136;51.022;7.082;2023-07-31T19:38:11;18.20;1.00
48328;DHT22;34136;51.022;7.082;2023-07-31T19:40:58;18.20;1.00
48328;DHT22;34136;51.022;7.082;2023-07-31T19:43:46;18.20;1.00
48328;DHT22;34136;51.022;7.082;2023-07-31T19:46:35;18.10;1.00
48328;DHT22;34136;51.022;7.082;2023-07-31T19:52:23;18.10;1.00
48328;DHT22;34136;51.022;7.082;2023-07-31T19:55:11;18.00;1.00
48328;DHT22;34136;51.022;7.082;2023-07-31T19:57:58;18.10;1.00
48328;DHT22;34136;51.022;7.082;2023-07-31T20:00:45;18.10;1.00
48328;DHT22;34136;51.022;7.082;2023-07-31T20:03:31;18.20;1.00
48328;DHT22;34136;51.022;7.082;2023-07-31T20:06:17;18.20;1.00
48328;DHT22;34136;51.022;7.082;2023-07-31T20:09:03;18.20;1.00
48328;DHT22;34136;51.022;7.082;2023-07-31T20:11:49;18.20;1.00
48328;DHT22;34136;51.022;7.082;2023-07-31T20:14:35;18.20;1.00
48328;DHT22;34136;51.022;7.082;2023-07-31T20:17:22;18.30;1.00
48328;DHT22;34136;51.022;7.082;2023-07-31T20:20:08;18.20;1.00
48328;DHT22;34136;51.022;7.082;2023-07-31T20:22:55;18.20;1.00
48328;DHT22;34136;51.022;7.082;2023-07-31T20:25:41;18.20;1.00
48328;DHT22;34136;51.022;7.082;2023-07-31T20:28:28;18.30;1.00
48328;DHT22;34136;51.022;7.082;2023-07-31T20:31:14;18.30;1.00
48328;DHT22;34136;51.022;7.082;2023-07-31T20:34:01;18.30;1.00
48328;DHT22;34136;51.022;7.082;2023-07-31T20:36:47;18.30;1.00
48328;DHT22;34136;51.022;7.082;2023-07-31T20:39:33;18.30;1.00
48328;DHT22;34136;51.022;7.082;2023-07-31T20:42:19;18.40;1.00
48328;DHT22;34136;51.022;7.082;2023-07-31T20:45:06;18.40;1.00
48328;DHT22;34136;51.022;7.082;2023-07-31T20:47:52;18.30;1.00
48328;DHT22;34136;51.022;7.082;2023-07-31T20:50:39;18.10;1.00
48328;DHT22;34136;51.022;7.082;2023-07-31T20:53:25;18.20;1.00
48328;DHT22;34136;51.022;7.082;2023-07-31T20:56:11;18.20;1.00
48328;DHT22;34136;51.022;7.082;2023-07-31T20:58:58;18.30;1.00
48328;DHT22;34136;51.022;7.082;2023-07-31T21:01:44;18.30;1.00
48328;DHT22;34136;51.022;7.082;2023-07-31T21:04:31;18.30;1.00
48328;DHT22;34136;51.022;7.082;2023-07-31T21:07:17;18.30;1.00
48328;DHT22;34136;51.022;7.082;2023-07-31T21:10:05;18.30;1.00
48328;DHT22;34136;51.022;7.082;2023-07-31T21:13:07;18.20;1.00
48328;DHT22;34136;51.022;7.082;2023-07-31T21:16:00;18.20;1.00
48328;DHT22;34136;51.022;7.082;2023-07-31T21:18:52;18.20;1.00
48328;DHT22;34136;51.022;7.082;2023-07-31T21:21:42;18.20;1.00
48328;DHT22;34136;51.022;7.082;2023-07-31T21:24:28;18.10;1.00
48328;DHT22;34136;51.022;7.082;2023-07-31T21:27:15;18.20;1.00
48328;DHT22;34136;51.022;7.082;2023-07-31T21:30:02;18.10;1.00
48328;DHT22;34136;51.022;7.082;2023-07-31T21:32:49;18.10;1.00
48328;DHT22;34136;51.022;7.082;2023-07-31T21:35:35;18.10;1.00
48328;DHT22;34136;51.022;7.082;2023-07-31T21:38:23;18.20;1.00
48328;DHT22;34136;51.022;7.082;2023-07-31T21:41:15;18.10;1.00
48328;DHT22;34136;51.022;7.082;2023-07-31T21:44:02;18.10;1.00
48328;DHT22;34136;51.022;7.082;2023-07-31T21:46:50;18.20;1.00
48328;DHT22;34136;51.022;7.082;2023-07-31T21:49:36;18.10;1.00
48328;DHT22;34136;51.022;7.082;2023-07-31T21:52:23;18.10;1.00
48328;DHT22;34136;51.022;7.082;2023-07-31T21:55:09;18.10;1.00
48328;DHT22;34136;51.022;7.082;2023-07-31T21:57:56;18.10;1.00
48328;DHT22;34136;51.022;7.082;2023-07-31T22:00:43;18.10;1.00
48328;DHT22;34136;51.022;7.082;2023-07-31T22:03:29;18.10;1.00
48328;DHT22;34136;51.022;7.082;2023-07-31T22:06:15;18.10;1.00
48328;DHT22;34136;51.022;7.082;2023-07-31T22:09:01;18.10;1.00
48328;DHT22;34136;51.022;7.082;2023-07-31T22:11:47;18.00;1.00
48328;DHT22;34136;51.022;7.082;2023-07-31T22:14:34;18.00;1.00
48328;DHT22;34136;51.022;7.082;2023-07-31T22:17:20;18.00;1.00
48328;DHT22;34136;51.022;7.082;2023-07-31T22:20:07;18.00;1.00
48328;DHT22;34136;51.022;7.082;2023-07-31T22:22:53;18.00;1.00
48328;DHT22;34136;51.022;7.082;2023-07-31T22:25:39;17.90;1.00
48328;DHT22;34136;51.022;7.082;2023-07-31T22:28:26;17.80;1.00
48328;DHT22;34136;51.022;7.082;2023-07-31T22:31:14;17.80;1.00
48328;DHT22;34136;51.022;7.082;2023-07-31T22:34:04;17.80;1.00
48328;DHT22;34136;51.022;7.082;2023-07-31T22:36:51;17.80;1.00
48328;DHT22;34136;51.022;7.082;2023-07-31T22:39:40;17.80;1.00
48328;DHT22;34136;51.022;7.082;2023-07-31T22:42:40;17.80;1.00
48328;DHT22;34136;51.022;7.082;2023-07-31T22:45:37;17.70;1.00
48328;DHT22;34136;51.022;7.082;2023-07-31T22:48:25;17.70;1.00
48328;DHT22;34136;51.022;7.082;2023-07-31T22:51:13;17.80;1.00
48328;DHT22;34136;51.022;7.082;2023-07-31T22:54:00;17.70;1.00
48328;DHT22;34136;51.022;7.082;2023-07-31T22:56:48;17.70;1.00
48328;DHT22;34136;51.022;7.082;2023-07-31T22:59:34;17.70;1.00
48328;DHT22;34136;51.022;7.082;2023-07-31T23:02:20;17.70;1.00
48328;DHT22;34136;51.022;7.082;2023-07-31T23:05:07;17.70;1.00
48328;DHT22;34136;51.022;7.082;2023-07-31T23:07:53;17.70;1.00
48328;DHT22;34136;51.022;7.082;2023-07-31T23:10:39;17.70;1.00
48328;DHT22;34136;51.022;7.082;2023-07-31T23:13:25;17.70;1.00
48328;DHT22;34136;51.022;7.082;2023-07-31T23:16:20;17.60;1.00
48328;DHT22;34136;51.022;7.082;2023-07-31T23:19:07;17.60;1.00
48328;DHT22;34136;51.022;7.082;2023-07-31T23:21:53;17.60;1.00
48328;DHT22;34136;51.022;7.082;2023-07-31T23:24:39;17.70;1.00
48328;DHT22;34136;51.022;7.082;2023-07-31T23:27:25;17.60;1.00
48328;DHT22;34136;51.022;7.082;2023-07-31T23:30:11;17.70;1.00
48328;DHT22;34136;51.022;7.082;2023-07-31T23:32:58;17.80;1.00
48328;DHT22;34136;51.022;7.082;2023-07-31T23:35:44;17.80;1.00
48328;DHT22;34136;51.022;7.082;2023-07-31T23:38:30;17.80;1.00
48328;DHT22;34136;51.022;7.082;2023-07-31T23:41:16;17.70;1.00
48328;DHT22;34136;51.022;7.082;2023-07-31T23:44:02;17.70;1.00
48328;DHT22;34136;51.022;7.082;2023-07-31T23:46:49;17.80;1.00
48328;DHT22;34136;51.022;7.082;2023-07-31T23:49:35;17.80;1.00
48328;DHT22;34136;51.022;7.082;2023-07-31T23:52:21;17.80;1.00
48328;DHT22;34136;51.022;7.082;2023-07-31T23:55:08;17.70;1.00
48328;DHT22;34136;51.022;7.082;2023-07-31T23:57:54;17.80;1.00
